Time;durP1;ratioP1;P1;durP2;ratioP2;P2;SDS_P1;SDS_P2;PMS_P1;PMS_P2;Temp;Humidity;BMP_temperature;BMP_pressure;BME280_temperature;BME280_humidity;BME280_pressure;Samples;Min_cycle;Max_cycle;Signal;HPM_P1;HPM_P2
2021/08/12 00:01:09;;;;;;;8.45;6.13;;;27.50;99.90;;;;;;5032538;28;20036;-70
2021/08/12 00:03:35;;;;;;;8.10;7.40;;;27.50;99.90;;;;;;5032603;28;20100;-68
2021/08/12 00:06:01;;;;;;;9.70;6.97;;;27.50;99.90;;;;;;5031987;28;20543;-68
2021/08/12 00:08:27;;;;;;;14.07;7.00;;;27.50;99.90;;;;;;5030599;28;20121;-69
2021/08/12 00:10:52;;;;;;;7.28;6.60;;;27.50;99.90;;;;;;5031927;28;20025;-69
2021/08/12 00:13:20;;;;;;;9.20;7.40;;;27.50;99.90;;;;;;5030651;28;20105;-69
2021/08/12 00:15:46;;;;;;;7.13;6.43;;;27.50;99.90;;;;;;5032213;28;20045;-68
2021/08/12 00:18:12;;;;;;;8.38;6.13;;;27.50;99.90;;;;;;5031879;28;20048;-68
2021/08/12 00:20:38;;;;;;;6.95;6.30;;;27.50;99.90;;;;;;5032109;28;20068;-69
2021/08/12 00:23:04;;;;;;;8.95;6.45;;;27.50;99.90;;;;;;5030609;28;20034;-69
2021/08/12 00:25:30;;;;;;;7.95;6.72;;;27.50;99.90;;;;;;5031865;28;20038;-68
2021/08/12 00:27:56;;;;;;;8.00;7.28;;;27.50;99.90;;;;;;5030504;28;20025;-68
2021/08/12 00:30:22;;;;;;;11.38;6.03;;;27.50;99.90;;;;;;5031864;28;20117;-68
2021/08/12 00:32:47;;;;;;;8.88;5.97;;;27.50;99.90;;;;;;5032199;28;20045;-69
2021/08/12 00:35:14;;;;;;;8.52;7.57;;;27.50;99.90;;;;;;5030875;28;20033;-68
2021/08/12 00:37:40;;;;;;;6.68;6.13;;;27.50;99.90;;;;;;5030753;28;20029;-69
2021/08/12 00:40:07;;;;;;;6.63;6.03;;;27.50;99.90;;;;;;5031078;28;20427;-68
2021/08/12 00:42:33;;;;;;;8.38;6.55;;;27.40;99.90;;;;;;5031675;28;20068;-69
2021/08/12 00:45:00;;;;;;;9.20;6.50;;;27.30;99.90;;;;;;5031739;28;20021;-68
2021/08/12 00:47:26;;;;;;;6.78;6.18;;;27.20;99.90;;;;;;5030590;28;20490;-69
2021/08/12 00:49:52;;;;;;;9.75;6.35;;;27.10;99.90;;;;;;5031108;28;20100;-68
2021/08/12 00:52:20;;;;;;;12.40;7.05;;;27.10;99.90;;;;;;5031280;28;20021;-68
2021/08/12 00:54:45;;;;;;;13.07;7.45;;;27.10;99.90;;;;;;5029641;28;20033;-68
2021/08/12 00:57:12;;;;;;;8.10;7.03;;;27.00;99.90;;;;;;5029604;28;20082;-71
2021/08/12 00:59:40;;;;;;;9.43;6.20;;;27.00;99.90;;;;;;5031113;28;20077;-69
2021/08/12 01:02:15;;;;;;;7.35;6.25;;;26.90;99.90;;;;;;5031051;28;20025;-68
2021/08/12 01:04:45;;;;;;;9.38;7.07;;;26.80;99.90;;;;;;5029447;28;20041;-69
2021/08/12 01:07:26;;;;;;;7.60;6.90;;;26.80;99.90;;;;;;5029831;28;20040;-71
2021/08/12 01:10:13;;;;;;;10.90;6.10;;;26.80;99.90;;;;;;5029557;28;20017;-68
2021/08/12 01:13:12;;;;;;;6.47;5.88;;;26.70;99.90;;;;;;5030990;28;20037;-70
2021/08/12 01:15:46;;;;;;;10.05;7.35;;;26.60;99.90;;;;;;5029733;28;20257;-69
2021/08/12 01:18:37;;;;;;;9.65;6.35;;;26.60;99.90;;;;;;5029280;28;20491;-69
2021/08/12 01:21:22;;;;;;;8.80;6.97;;;26.50;99.90;;;;;;5024608;28;20068;-70
2021/08/12 01:23:48;;;;;;;8.63;6.93;;;26.60;99.90;;;;;;5029569;28;20033;-69
2021/08/12 01:26:18;;;;;;;10.52;6.55;;;26.50;99.90;;;;;;5030267;28;20059;-70
2021/08/12 01:28:50;;;;;;;6.72;6.13;;;26.50;99.90;;;;;;5030358;28;20045;-70
2021/08/12 01:31:30;;;;;;;6.60;6.03;;;26.50;99.90;;;;;;5032702;28;20025;-70
2021/08/12 01:34:08;;;;;;;9.43;6.30;;;26.50;99.90;;;;;;5040559;28;20022;-70
2021/08/12 01:36:36;;;;;;;7.03;6.47;;;26.50;99.90;;;;;;5043384;28;20519;-71
2021/08/12 01:39:04;;;;;;;7.25;6.53;;;26.40;99.90;;;;;;5031450;28;20024;-71
2021/08/12 01:41:31;;;;;;;7.40;6.18;;;26.30;99.90;;;;;;5029907;28;20104;-70
2021/08/12 01:43:59;;;;;;;7.30;6.60;;;26.30;99.90;;;;;;5031240;28;20082;-69
2021/08/12 01:46:26;;;;;;;7.38;6.65;;;26.30;99.90;;;;;;5029056;28;20021;-70
2021/08/12 01:48:54;;;;;;;10.80;5.68;;;26.30;99.90;;;;;;5029230;28;20025;-69
2021/08/12 01:51:24;;;;;;;7.97;6.30;;;26.30;99.90;;;;;;5029421;28;20465;-69
2021/08/12 01:53:51;;;;;;;6.10;5.53;;;26.30;99.90;;;;;;5029533;28;20049;-70
2021/08/12 01:56:18;;;;;;;6.95;6.07;;;26.30;99.90;;;;;;5031058;28;20163;-69
2021/08/12 01:58:46;;;;;;;7.97;6.45;;;26.40;99.90;;;;;;5029417;28;20052;-69
2021/08/12 02:01:12;;;;;;;6.80;6.22;;;26.40;99.90;;;;;;5030571;28;20392;-69
2021/08/12 02:03:40;;;;;;;6.00;5.50;;;26.40;99.90;;;;;;5030635;28;20053;-70
2021/08/12 02:06:09;;;;;;;6.88;6.18;;;26.40;99.90;;;;;;5030433;28;20017;-69
2021/08/12 02:08:35;;;;;;;7.50;6.80;;;26.40;99.90;;;;;;5030612;28;20021;-70
2021/08/12 02:11:00;;;;;;;9.48;6.45;;;26.40;99.90;;;;;;5030475;28;20530;-70
2021/08/12 02:13:28;;;;;;;5.95;5.53;;;26.40;99.90;;;;;;5030271;28;20071;-70
2021/08/12 02:15:54;;;;;;;6.82;6.18;;;26.40;99.90;;;;;;5030434;28;20025;-69
2021/08/12 02:18:20;;;;;;;9.02;6.50;;;26.50;99.90;;;;;;5029195;28;20625;-69
2021/08/12 02:20:57;;;;;;;7.25;5.95;;;26.60;99.90;;;;;;5029119;28;20415;-69
2021/08/12 02:23:45;;;;;;;7.93;6.88;;;26.80;99.90;;;;;;5028771;28;20144;-69
2021/08/12 02:26:18;;;;;;;10.10;6.43;;;26.80;99.90;;;;;;5030215;28;20029;-69
2021/08/12 02:28:45;;;;;;;7.10;5.75;;;26.90;99.90;;;;;;5029969;28;20049;-69
2021/08/12 02:31:15;;;;;;;7.45;5.80;;;26.90;99.90;;;;;;5030141;28;20062;-69
2021/08/12 02:33:45;;;;;;;5.93;5.50;;;26.90;99.90;;;;;;5028633;28;20091;-69
2021/08/12 02:36:10;;;;;;;6.60;5.80;;;26.90;99.90;;;;;;5028735;28;20442;-69
2021/08/12 02:38:39;;;;;;;6.32;5.53;;;26.90;99.90;;;;;;5028715;28;20025;-69
2021/08/12 02:41:09;;;;;;;6.80;6.03;;;26.80;99.90;;;;;;5030251;28;20124;-70
2021/08/12 02:43:38;;;;;;;6.22;5.68;;;26.80;99.90;;;;;;5030511;28;20547;-69
2021/08/12 02:46:05;;;;;;;8.05;6.28;;;26.70;99.90;;;;;;5030189;28;20051;-69
2021/08/12 02:48:32;;;;;;;11.80;6.07;;;26.60;99.90;;;;;;5029624;28;20021;-69
2021/08/12 02:51:00;;;;;;;6.63;5.93;;;26.50;99.90;;;;;;5030091;28;20175;-69
2021/08/12 02:53:29;;;;;;;9.25;6.28;;;26.50;99.90;;;;;;5030044;28;20030;-69
2021/08/12 02:55:55;;;;;;;6.93;6.32;;;26.50;99.90;;;;;;5029200;28;20045;-71
2021/08/12 02:58:22;;;;;;;10.25;6.38;;;26.60;99.90;;;;;;5030453;28;20035;-69
2021/08/12 03:00:49;;;;;;;5.90;5.47;;;26.50;99.90;;;;;;5030865;28;20079;-69
2021/08/12 03:03:17;;;;;;;6.80;5.95;;;26.50;99.90;;;;;;5032070;28;20032;-69
2021/08/12 03:05:46;;;;;;;6.55;5.95;;;26.50;99.90;;;;;;5032788;28;20436;-69
2021/08/12 03:08:17;;;;;;;6.63;6.03;;;26.50;99.90;;;;;;5034012;28;20454;-69
2021/08/12 03:10:43;;;;;;;9.00;6.57;;;26.50;99.90;;;;;;5034946;28;20021;-70
2021/08/12 03:13:11;;;;;;;7.47;6.72;;;26.40;99.90;;;;;;5033431;28;20531;-70
2021/08/12 03:15:38;;;;;;;7.55;6.03;;;26.40;99.90;;;;;;5033374;28;20065;-69
2021/08/12 03:18:05;;;;;;;6.55;5.65;;;26.40;99.90;;;;;;5033678;28;20480;-68
2021/08/12 03:20:31;;;;;;;7.72;7.03;;;26.50;99.90;;;;;;5034703;28;20484;-70
2021/08/12 03:22:58;;;;;;;7.45;5.85;;;26.40;99.90;;;;;;5034362;28;20033;-69
2021/08/12 03:25:25;;;;;;;7.40;6.10;;;26.40;99.90;;;;;;5033426;28;20026;-69
2021/08/12 03:27:51;;;;;;;6.80;6.20;;;26.40;99.90;;;;;;5032335;28;20123;-70
2021/08/12 03:30:18;;;;;;;8.30;6.68;;;26.40;99.90;;;;;;5033903;28;20025;-69
2021/08/12 03:32:44;;;;;;;8.82;6.05;;;26.40;99.90;;;;;;5034095;28;20022;-70
2021/08/12 03:35:10;;;;;;;14.43;6.78;;;26.40;99.90;;;;;;5033723;28;20890;-69
2021/08/12 03:37:36;;;;;;;8.40;6.55;;;26.40;99.90;;;;;;5032467;28;20065;-69
2021/08/12 03:40:03;;;;;;;7.63;6.80;;;26.40;99.90;;;;;;5032393;28;20143;-70
2021/08/12 03:42:28;;;;;;;8.85;6.88;;;26.30;99.90;;;;;;5034471;28;20121;-70
2021/08/12 03:44:54;;;;;;;6.40;5.80;;;26.30;99.90;;;;;;5032232;28;20040;-69
2021/08/12 03:47:20;;;;;;;7.53;5.93;;;26.30;99.90;;;;;;5031964;28;20495;-68
2021/08/12 03:49:46;;;;;;;7.97;6.35;;;26.30;99.90;;;;;;5033157;28;20026;-72
2021/08/12 03:52:12;;;;;;;7.38;6.45;;;26.30;99.90;;;;;;5033061;28;20403;-69
2021/08/12 03:54:38;;;;;;;6.82;6.20;;;26.30;99.90;;;;;;5031569;28;20179;-70
2021/08/12 03:57:04;;;;;;;7.18;6.32;;;26.30;99.90;;;;;;5033243;28;20029;-71
2021/08/12 03:59:30;;;;;;;8.05;6.63;;;26.30;99.90;;;;;;5033337;28;20392;-70
2021/08/12 04:01:56;;;;;;;7.65;7.05;;;26.30;99.90;;;;;;5032250;28;20033;-70
2021/08/12 04:04:22;;;;;;;6.82;6.13;;;26.30;99.90;;;;;;5033000;28;20100;-70
2021/08/12 04:06:48;;;;;;;7.05;6.35;;;26.30;99.90;;;;;;5031658;28;20030;-70
2021/08/12 04:09:14;;;;;;;13.18;6.28;;;26.30;99.90;;;;;;5031633;28;20033;-70
2021/08/12 04:11:39;;;;;;;7.68;6.88;;;26.30;99.90;;;;;;5032995;28;20388;-69
2021/08/12 04:14:05;;;;;;;9.82;7.22;;;26.20;99.90;;;;;;5030704;28;20036;-70
2021/08/12 04:16:31;;;;;;;8.10;7.38;;;26.30;99.90;;;;;;5031859;28;20506;-71
2021/08/12 04:18:57;;;;;;;8.13;6.10;;;26.30;99.90;;;;;;5033304;28;20029;-70
2021/08/12 04:21:23;;;;;;;9.10;7.00;;;26.20;99.90;;;;;;5033315;28;20037;-69
2021/08/12 04:23:49;;;;;;;7.72;6.68;;;26.20;99.90;;;;;;5033628;28;20029;-70
2021/08/12 04:26:15;;;;;;;7.75;7.05;;;26.20;99.90;;;;;;5032587;28;20447;-70
2021/08/12 04:28:40;;;;;;;7.85;7.00;;;26.20;99.90;;;;;;5032294;28;20029;-70
2021/08/12 04:31:06;;;;;;;8.13;7.30;;;26.20;99.90;;;;;;5032522;28;20460;-70
2021/08/12 04:33:32;;;;;;;9.18;6.10;;;26.10;99.90;;;;;;5032263;28;20025;-69
2021/08/12 04:35:58;;;;;;;8.65;6.63;;;26.10;99.90;;;;;;5031089;28;20032;-69
2021/08/12 04:38:27;;;;;;;11.38;6.47;;;26.10;99.90;;;;;;5031068;28;20403;-69
2021/08/12 04:40:53;;;;;;;15.27;6.68;;;26.10;99.90;;;;;;5032142;28;20087;-70
2021/08/12 04:43:20;;;;;;;11.02;6.47;;;26.20;99.90;;;;;;5032183;28;20476;-70
2021/08/12 04:45:46;;;;;;;13.82;6.55;;;26.20;99.90;;;;;;5030476;28;20456;-70
2021/08/12 04:48:13;;;;;;;9.90;6.75;;;26.20;99.90;;;;;;5031923;28;20395;-70
2021/08/12 04:50:38;;;;;;;6.63;6.00;;;26.20;99.90;;;;;;5031982;28;20117;-71
2021/08/12 04:53:05;;;;;;;8.77;7.03;;;26.20;99.90;;;;;;5030447;28;20458;-70
2021/08/12 04:55:31;;;;;;;12.88;7.05;;;26.20;99.90;;;;;;5030229;28;20049;-69
2021/08/12 04:57:57;;;;;;;7.78;6.05;;;26.20;99.90;;;;;;5031668;28;20452;-70
2021/08/12 05:00:23;;;;;;;10.43;7.28;;;26.20;99.90;;;;;;5031610;28;20097;-69
2021/08/12 05:02:49;;;;;;;11.32;7.05;;;26.20;99.90;;;;;;5030977;28;20032;-70
2021/08/12 05:05:15;;;;;;;7.15;6.32;;;26.30;99.90;;;;;;5030330;28;20029;-71
2021/08/12 05:07:41;;;;;;;7.35;6.43;;;26.20;99.90;;;;;;5032175;28;20040;-71
2021/08/12 05:10:07;;;;;;;7.95;7.15;;;26.30;99.90;;;;;;5030723;28;20472;-72
2021/08/12 05:12:33;;;;;;;8.57;6.43;;;26.40;99.90;;;;;;5032144;28;20032;-71
2021/08/12 05:14:59;;;;;;;16.83;8.70;;;26.40;99.90;;;;;;5030388;28;20021;-70
2021/08/12 05:17:26;;;;;;;10.32;7.85;;;26.40;99.90;;;;;;5032177;28;20447;-70
2021/08/12 05:19:52;;;;;;;7.57;6.88;;;26.30;99.90;;;;;;5031122;28;20056;-70
2021/08/12 05:22:19;;;;;;;7.68;6.93;;;26.30;99.90;;;;;;5024955;28;20033;-70
2021/08/12 05:24:45;;;;;;;8.27;7.47;;;26.30;99.90;;;;;;5029322;28;20044;-71
2021/08/12 05:27:11;;;;;;;14.50;10.85;;;26.30;99.90;;;;;;5036041;28;20025;-71
2021/08/12 05:29:36;;;;;;;12.52;7.25;;;26.40;99.90;;;;;;5040635;28;20106;-71
2021/08/12 05:32:02;;;;;;;11.07;6.75;;;26.40;99.90;;;;;;5037622;28;20086;-72
2021/08/12 05:34:28;;;;;;;8.95;7.32;;;26.40;99.90;;;;;;5030172;28;20112;-70
2021/08/12 05:36:54;;;;;;;9.88;6.90;;;26.40;99.90;;;;;;5030619;28;20108;-70
2021/08/12 05:39:20;;;;;;;9.10;7.22;;;26.50;99.90;;;;;;5031395;28;20402;-70
2021/08/12 05:41:45;;;;;;;8.73;7.80;;;26.50;99.90;;;;;;5030983;28;20148;-71
2021/08/12 05:44:11;;;;;;;8.20;6.90;;;26.50;99.90;;;;;;5031714;28;20368;-71
2021/08/12 05:46:37;;;;;;;6.90;6.30;;;26.50;99.90;;;;;;5031381;28;20033;-70
2021/08/12 05:49:03;;;;;;;8.15;7.40;;;26.50;99.90;;;;;;5032122;28;20033;-70
2021/08/12 05:51:30;;;;;;;10.73;7.68;;;26.50;99.90;;;;;;5030593;28;20025;-71
2021/08/12 05:53:57;;;;;;;7.22;6.53;;;26.60;99.90;;;;;;5031541;28;20052;-71
2021/08/12 05:56:22;;;;;;;14.40;8.80;;;26.60;99.90;;;;;;5031537;28;20479;-72
2021/08/12 05:58:48;;;;;;;13.07;10.82;;;26.60;99.90;;;;;;5031364;28;20117;-71
2021/08/12 06:01:14;;;;;;;16.27;12.93;;;26.70;99.90;;;;;;5029567;28;20079;-71
2021/08/12 06:03:40;;;;;;;18.75;14.45;;;26.70;99.90;;;;;;5029543;28;20033;-71
2021/08/12 06:06:05;;;;;;;10.57;9.25;;;26.70;99.90;;;;;;5028689;28;20029;-70
2021/08/12 06:08:31;;;;;;;18.63;10.20;;;26.80;99.90;;;;;;5030583;28;20125;-71
2021/08/12 06:10:57;;;;;;;12.75;10.23;;;26.80;99.90;;;;;;5029210;28;20524;-70
2021/08/12 06:13:23;;;;;;;14.90;10.02;;;26.80;99.90;;;;;;5030608;28;20025;-70
2021/08/12 06:15:48;;;;;;;12.85;9.68;;;26.90;99.90;;;;;;5029370;28;20060;-71
2021/08/12 06:18:15;;;;;;;11.48;10.30;;;27.00;99.90;;;;;;5030275;28;20034;-70
2021/08/12 06:20:42;;;;;;;8.63;7.60;;;27.00;99.90;;;;;;5028878;28;20120;-71
2021/08/12 06:23:09;;;;;;;7.97;7.15;;;27.10;99.90;;;;;;5030376;28;20091;-71
2021/08/12 06:25:36;;;;;;;7.25;6.60;;;27.20;99.90;;;;;;5030746;28;20176;-71
2021/08/12 06:28:03;;;;;;;8.18;6.93;;;27.20;99.90;;;;;;5030377;28;20105;-73
2021/08/12 06:30:29;;;;;;;8.85;7.05;;;27.20;99.90;;;;;;5030977;28;20029;-71
2021/08/12 06:32:55;;;;;;;6.80;6.20;;;27.30;99.90;;;;;;5029242;28;20025;-71
2021/08/12 06:35:21;;;;;;;17.25;7.20;;;27.30;99.90;;;;;;5029391;28;20033;-71
2021/08/12 06:37:49;;;;;;;8.65;7.43;;;27.40;99.90;;;;;;5030937;28;20037;-71
2021/08/12 06:40:16;;;;;;;9.38;6.40;;;27.50;99.90;;;;;;5034342;28;20074;-71
2021/08/12 06:42:43;;;;;;;6.85;6.35;;;27.50;99.90;;;;;;5034545;28;20033;-71
2021/08/12 06:45:09;;;;;;;8.23;6.95;;;27.60;99.90;;;;;;5034698;28;20356;-71
2021/08/12 06:47:36;;;;;;;9.88;5.97;;;27.60;99.90;;;;;;5033878;28;20021;-71
2021/08/12 06:50:03;;;;;;;6.25;5.78;;;27.60;99.90;;;;;;5033042;28;20052;-71
2021/08/12 06:52:29;;;;;;;9.63;5.70;;;27.70;99.90;;;;;;5033889;28;20045;-71
2021/08/12 06:54:55;;;;;;;9.13;7.55;;;27.90;99.90;;;;;;5032558;28;20426;-72
2021/08/12 06:57:21;;;;;;;8.88;5.97;;;27.90;99.90;;;;;;5034232;28;20044;-71
2021/08/12 06:59:47;;;;;;;10.05;6.32;;;27.90;99.90;;;;;;5032595;28;20651;-71
2021/08/12 07:02:12;;;;;;;13.50;6.07;;;28.00;99.90;;;;;;5033899;28;20450;-71
2021/08/12 07:04:38;;;;;;;21.33;15.05;;;28.10;99.90;;;;;;5033196;28;20120;-71
2021/08/12 07:07:04;;;;;;;13.30;9.73;;;28.30;99.90;;;;;;5032516;28;20113;-70
2021/08/12 07:09:30;;;;;;;7.80;7.03;;;28.30;99.90;;;;;;5032195;28;20471;-71
2021/08/12 07:11:57;;;;;;;11.60;7.53;;;28.40;99.90;;;;;;5033376;28;20056;-70
2021/08/12 07:14:23;;;;;;;9.30;7.18;;;28.50;99.90;;;;;;5032479;28;20168;-70
2021/08/12 07:16:48;;;;;;;7.82;5.78;;;28.50;99.90;;;;;;5032108;28;20116;-71
2021/08/12 07:19:14;;;;;;;8.38;7.10;;;28.60;99.90;;;;;;5033037;28;20021;-71
2021/08/12 07:21:43;;;;;;;9.82;8.93;;;28.60;99.90;;;;;;5032996;28;20037;-71
2021/08/12 07:24:09;;;;;;;12.35;11.02;;;28.60;99.90;;;;;;5033451;28;20609;-72
2021/08/12 07:26:36;;;;;;;11.70;6.45;;;28.70;99.90;;;;;;5033119;28;20040;-72
2021/08/12 07:29:03;;;;;;;7.75;6.38;;;28.70;99.90;;;;;;5033404;28;20021;-70
2021/08/12 07:31:29;;;;;;;6.68;6.07;;;28.80;99.90;;;;;;5033512;28;20526;-69
2021/08/12 07:33:55;;;;;;;6.97;6.35;;;28.90;99.90;;;;;;5033413;28;20057;-71
2021/08/12 07:36:20;;;;;;;6.68;5.45;;;28.80;99.90;;;;;;5031617;28;20056;-71
2021/08/12 07:38:46;;;;;;;10.88;6.60;;;28.90;99.90;;;;;;5032822;28;20041;-71
2021/08/12 07:41:12;;;;;;;8.82;6.32;;;29.10;99.90;;;;;;5031706;28;20399;-70
2021/08/12 07:43:38;;;;;;;9.48;6.43;;;29.10;99.90;;;;;;5033252;28;20021;-70
2021/08/12 07:46:04;;;;;;;7.85;7.15;;;29.10;99.90;;;;;;5032881;28;20481;-71
2021/08/12 07:48:30;;;;;;;8.18;6.18;;;29.20;99.90;;;;;;5031908;28;20030;-71
2021/08/12 07:50:56;;;;;;;7.78;6.60;;;29.10;99.90;;;;;;5031781;28;20044;-70
2021/08/12 07:53:22;;;;;;;7.57;6.85;;;29.20;99.90;;;;;;5031590;28;20112;-71
2021/08/12 07:55:47;;;;;;;7.15;6.28;;;29.40;99.90;;;;;;5033011;28;20026;-71
2021/08/12 07:58:13;;;;;;;10.20;6.03;;;29.40;99.90;;;;;;5032637;28;20037;-71
2021/08/12 08:00:39;;;;;;;7.10;6.32;;;29.50;99.90;;;;;;5033138;28;20033;-71
2021/08/12 08:03:05;;;;;;;8.38;6.30;;;29.50;99.90;;;;;;5033027;28;20060;-71
2021/08/12 08:05:31;;;;;;;8.43;6.80;;;29.50;99.90;;;;;;5032516;28;20034;-70
2021/08/12 08:07:57;;;;;;;9.02;6.43;;;29.60;99.90;;;;;;5031171;28;20112;-70
2021/08/12 08:10:26;;;;;;;7.07;6.40;;;29.60;99.90;;;;;;5032213;28;20029;-70
2021/08/12 08:12:53;;;;;;;7.68;6.78;;;29.70;99.90;;;;;;5031522;28;20104;-70
2021/08/12 08:15:21;;;;;;;6.00;5.38;;;29.70;99.90;;;;;;5032065;28;20040;-70
2021/08/12 08:17:46;;;;;;;13.02;7.15;;;29.80;99.90;;;;;;5031497;28;20057;-71
2021/08/12 08:20:13;;;;;;;7.82;5.70;;;29.80;99.90;;;;;;5032364;28;20087;-71
2021/08/12 08:22:39;;;;;;;8.05;5.82;;;29.80;99.90;;;;;;5031159;28;20403;-71
2021/08/12 08:25:07;;;;;;;6.75;6.10;;;29.80;99.90;;;;;;5032388;28;20099;-71
2021/08/12 08:27:33;;;;;;;8.55;5.60;;;30.00;99.90;;;;;;5032210;28;20022;-71
2021/08/12 08:29:59;;;;;;;8.85;6.35;;;30.00;99.90;;;;;;5032071;28;20021;-71
2021/08/12 08:32:25;;;;;;;5.85;5.35;;;30.00;99.90;;;;;;5031344;28;20032;-71
2021/08/12 08:34:53;;;;;;;7.75;6.50;;;30.10;99.90;;;;;;5032116;28;20033;-70
2021/08/12 08:37:19;;;;;;;8.05;5.68;;;30.10;99.90;;;;;;5032467;28;20033;-72
2021/08/12 08:39:45;;;;;;;6.90;5.22;;;30.20;99.90;;;;;;5031728;28;20029;-71
2021/08/12 08:42:13;;;;;;;9.20;5.90;;;30.30;99.90;;;;;;5031955;28;20035;-71
2021/08/12 08:44:42;;;;;;;9.05;5.28;;;30.50;99.90;;;;;;5032336;28;20496;-70
2021/08/12 08:47:09;;;;;;;7.65;5.57;;;30.60;99.90;;;;;;5032316;28;20452;-72
2021/08/12 08:49:42;;;;;;;6.35;5.70;;;30.80;99.90;;;;;;5031563;28;20025;-70
2021/08/12 08:52:12;;;;;;;7.55;5.78;;;30.90;99.90;;;;;;5031993;28;20083;-71
2021/08/12 08:54:40;;;;;;;10.30;6.22;;;30.80;99.90;;;;;;5031276;28;20033;-71
2021/08/12 08:57:07;;;;;;;12.65;7.22;;;30.90;99.90;;;;;;5030079;28;20549;-71
2021/08/12 08:59:34;;;;;;;7.32;6.63;;;30.80;99.90;;;;;;5030745;28;20036;-70
2021/08/12 09:02:04;;;;;;;8.18;6.07;;;30.90;99.90;;;;;;5031169;28;20060;-71
2021/08/12 09:04:35;;;;;;;6.40;5.80;;;31.00;99.90;;;;;;5031505;28;20029;-72
2021/08/12 09:07:09;;;;;;;6.90;6.20;;;31.10;99.90;;;;;;5030294;28;20036;-71
2021/08/12 09:09:36;;;;;;;7.65;5.93;;;31.10;99.90;;;;;;5030080;28;20053;-71
2021/08/12 09:12:03;;;;;;;6.70;5.82;;;31.20;99.90;;;;;;5031549;28;20017;-71
2021/08/12 09:14:32;;;;;;;7.55;6.28;;;31.20;99.90;;;;;;5031904;28;20083;-71
2021/08/12 09:16:59;;;;;;;6.28;5.72;;;31.00;99.90;;;;;;5033373;28;20049;-71
2021/08/12 09:19:25;;;;;;;10.25;6.10;;;31.00;99.90;;;;;;5034842;28;20048;-71
2021/08/12 09:22:01;;;;;;;13.55;6.65;;;31.10;99.90;;;;;;5040903;28;20089;-71
2021/08/12 09:24:27;;;;;;;6.75;6.22;;;31.20;99.90;;;;;;5040245;28;20045;-72
2021/08/12 09:26:52;;;;;;;9.65;6.40;;;31.20;99.90;;;;;;5031655;28;20017;-71
2021/08/12 09:29:30;;;;;;;8.25;5.90;;;31.20;99.90;;;;;;5031439;28;20071;-71
2021/08/12 09:32:01;;;;;;;6.97;6.15;;;31.20;99.90;;;;;;5029805;28;20025;-71
2021/08/12 09:35:05;;;;;;;7.28;6.70;;;31.20;99.90;;;;;;5031991;28;20026;-71
2021/08/12 09:37:33;;;;;;;6.75;6.05;;;31.00;99.90;;;;;;5019897;28;20091;-71
2021/08/12 09:40:03;;;;;;;11.70;6.13;;;31.00;99.90;;;;;;5032086;28;20060;-73
2021/08/12 09:42:29;;;;;;;10.40;6.60;;;31.00;99.90;;;;;;5031173;28;20033;-72
2021/08/12 09:44:55;;;;;;;7.97;5.28;;;31.00;99.90;;;;;;5032249;28;20043;-72
2021/08/12 09:47:29;;;;;;;7.15;6.32;;;31.00;99.90;;;;;;5032422;28;20030;-72
2021/08/12 09:49:59;;;;;;;7.40;5.45;;;30.90;99.90;;;;;;5032296;28;20075;-72
2021/08/12 09:52:27;;;;;;;5.90;5.38;;;30.90;99.90;;;;;;5032307;28;20075;-72
2021/08/12 09:55:14;;;;;;;8.68;5.57;;;30.90;99.90;;;;;;5032012;28;20036;-72
2021/08/12 09:57:51;;;;;;;6.07;5.47;;;31.00;99.90;;;;;;5029559;28;20021;-71
2021/08/12 10:00:25;;;;;;;8.68;5.25;;;31.00;99.90;;;;;;5031252;28;20032;-72
2021/08/12 10:02:52;;;;;;;8.75;5.38;;;31.00;99.90;;;;;;5029619;28;20072;-71
2021/08/12 10:05:18;;;;;;;6.97;6.28;;;31.00;99.90;;;;;;5029270;28;20022;-71
2021/08/12 10:07:46;;;;;;;14.57;5.78;;;31.00;99.90;;;;;;5028893;28;20017;-71
2021/08/12 10:10:18;;;;;;;5.63;5.13;;;30.90;99.90;;;;;;5029621;28;20035;-72
2021/08/12 10:12:55;;;;;;;9.02;6.32;;;30.70;99.90;;;;;;5030738;28;20053;-73
2021/08/12 10:15:31;;;;;;;6.28;5.38;;;30.70;99.90;;;;;;5030954;28;20049;-71
2021/08/12 10:17:59;;;;;;;5.25;4.65;;;30.80;99.90;;;;;;5029563;28;20391;-72
2021/08/12 10:20:28;;;;;;;7.35;5.00;;;30.80;99.90;;;;;;5029310;28;20057;-71
2021/08/12 10:22:56;;;;;;;5.43;5.03;;;30.80;99.90;;;;;;5030548;28;20022;-71
2021/08/12 10:25:23;;;;;;;10.52;6.53;;;30.70;99.90;;;;;;5030859;28;20086;-71
2021/08/12 10:27:52;;;;;;;5.60;5.18;;;30.70;99.90;;;;;;5029707;28;20113;-71
2021/08/12 10:30:20;;;;;;;8.00;5.88;;;30.80;99.90;;;;;;5029505;28;20028;-72
2021/08/12 10:32:57;;;;;;;6.65;5.28;;;30.80;99.90;;;;;;5030426;28;20430;-71
2021/08/12 10:35:26;;;;;;;6.18;5.68;;;30.80;99.90;;;;;;5030968;28;20484;-71
2021/08/12 10:37:56;;;;;;;9.15;6.22;;;30.90;99.90;;;;;;5030453;28;20034;-71
2021/08/12 10:40:27;;;;;;;11.27;6.50;;;30.90;99.90;;;;;;5031052;28;20029;-71
2021/08/12 10:42:55;;;;;;;6.93;6.30;;;31.10;99.90;;;;;;5029598;28;20372;-71
2021/08/12 10:45:23;;;;;;;7.97;6.00;;;31.10;99.90;;;;;;5029456;28;20029;-71
2021/08/12 10:47:56;;;;;;;8.55;5.65;;;31.20;99.90;;;;;;5030512;28;20380;-71
2021/08/12 10:50:31;;;;;;;6.38;5.78;;;31.20;99.90;;;;;;5031564;28;20394;-72
2021/08/12 10:53:04;;;;;;;7.55;6.95;;;31.10;99.90;;;;;;5030851;28;20025;-72
2021/08/12 10:55:31;;;;;;;7.20;6.45;;;31.10;99.90;;;;;;5030510;28;20387;-71
2021/08/12 10:58:28;;;;;;;7.18;6.45;;;31.10;99.90;;;;;;5030854;28;20036;-71
2021/08/12 11:01:07;;;;;;;7.63;6.80;;;31.10;99.90;;;;;;5028775;28;20040;-71
2021/08/12 11:03:32;;;;;;;8.27;6.60;;;31.10;99.90;;;;;;5030689;28;20029;-72
2021/08/12 11:06:02;;;;;;;7.25;6.63;;;31.10;99.90;;;;;;5031003;28;20037;-71
2021/08/12 11:08:59;;;;;;;8.63;5.93;;;31.10;99.90;;;;;;5029508;28;20104;-71
2021/08/12 11:11:28;;;;;;;6.80;6.30;;;31.10;99.90;;;;;;5023470;28;20117;-73
2021/08/12 11:13:55;;;;;;;6.45;5.85;;;31.20;99.90;;;;;;5034943;28;20028;-72
2021/08/12 11:16:25;;;;;;;6.72;6.03;;;31.10;99.90;;;;;;5040925;28;20124;-72
2021/08/12 11:18:52;;;;;;;8.80;6.38;;;31.20;99.90;;;;;;5041769;28;20091;-72
2021/08/12 11:21:41;;;;;;;10.60;7.38;;;31.20;99.90;;;;;;5030617;28;20109;-71
2021/08/12 11:24:31;;;;;;;7.60;6.80;;;31.30;99.90;;;;;;5033286;28;20060;-73
2021/08/12 11:27:00;;;;;;;10.38;7.18;;;31.50;99.90;;;;;;5034193;28;20087;-71
2021/08/12 11:29:29;;;;;;;8.35;7.35;;;31.50;99.90;;;;;;5033699;28;20048;-72
2021/08/12 11:31:56;;;;;;;11.88;7.72;;;31.20;99.90;;;;;;5033242;28;20060;-72
2021/08/12 11:34:25;;;;;;;9.25;7.10;;;31.30;99.90;;;;;;5032194;28;20399;-71
2021/08/12 11:37:13;;;;;;;6.72;6.13;;;31.30;99.90;;;;;;5033521;28;20543;-73
2021/08/12 11:40:09;;;;;;;10.32;5.88;;;31.40;99.90;;;;;;5032244;28;20132;-72
2021/08/12 11:42:43;;;;;;;7.13;6.40;;;31.40;99.90;;;;;;5033405;28;20109;-72
2021/08/12 11:45:17;;;;;;;7.00;6.38;;;31.40;99.90;;;;;;5033349;28;20026;-71
2021/08/12 11:47:44;;;;;;;7.18;6.47;;;31.30;99.90;;;;;;5033931;28;20026;-72
2021/08/12 11:50:13;;;;;;;6.53;5.93;;;31.20;99.90;;;;;;5033923;28;20467;-71
2021/08/12 11:52:49;;;;;;;11.13;5.90;;;31.30;99.90;;;;;;5033653;28;20069;-72
2021/08/12 11:55:23;;;;;;;11.60;6.25;;;31.30;99.90;;;;;;5033378;28;20176;-71
2021/08/12 11:57:50;;;;;;;6.00;5.13;;;31.40;99.90;;;;;;5032011;28;20025;-72
2021/08/12 12:00:20;;;;;;;9.63;6.20;;;31.40;99.90;;;;;;5031931;28;20025;-72
2021/08/12 12:02:53;;;;;;;7.18;6.55;;;31.40;99.90;;;;;;5032146;28;20034;-72
2021/08/12 12:05:24;;;;;;;11.98;6.55;;;31.40;99.90;;;;;;5032303;28;20043;-72
2021/08/12 12:07:58;;;;;;;10.60;5.53;;;31.30;99.90;;;;;;5033574;28;20021;-71
2021/08/12 12:10:38;;;;;;;6.80;6.20;;;31.20;99.90;;;;;;5033044;28;20034;-71
2021/08/12 12:13:11;;;;;;;12.15;6.03;;;31.00;99.90;;;;;;5033126;28;20433;-73
2021/08/12 12:15:43;;;;;;;7.22;6.53;;;30.90;99.90;;;;;;5033147;28;20500;-72
2021/08/12 12:18:09;;;;;;;6.78;5.57;;;30.90;99.90;;;;;;5031628;28;20079;-72
2021/08/12 12:20:39;;;;;;;9.85;5.35;;;30.80;99.90;;;;;;5032919;28;20035;-72
2021/08/12 12:23:07;;;;;;;8.50;6.15;;;30.80;99.90;;;;;;5031380;28;20400;-72
2021/08/12 12:25:35;;;;;;;16.52;6.38;;;30.70;99.90;;;;;;5032633;28;20543;-72
2021/08/12 12:28:02;;;;;;;11.10;5.72;;;30.90;99.90;;;;;;5031733;28;20047;-71
2021/08/12 12:30:30;;;;;;;6.10;5.60;;;30.90;99.90;;;;;;5032871;28;20026;-71
2021/08/12 12:33:21;;;;;;;6.20;5.60;;;30.80;99.90;;;;;;5031566;28;20021;-72
2021/08/12 12:35:48;;;;;;;5.28;4.78;;;31.00;99.90;;;;;;5028935;28;20400;-72
2021/08/12 12:38:19;;;;;;;5.03;4.63;;;31.00;99.90;;;;;;5032626;28;20029;-71
2021/08/12 12:40:46;;;;;;;5.13;4.68;;;31.10;99.90;;;;;;5032800;28;20036;-71
2021/08/12 12:43:12;;;;;;;6.03;5.30;;;31.00;99.90;;;;;;5032802;28;20095;-72
2021/08/12 12:45:47;;;;;;;5.18;4.72;;;31.10;99.90;;;;;;5031342;28;20075;-71
2021/08/12 12:48:13;;;;;;;5.22;4.72;;;31.20;99.90;;;;;;5033074;28;20022;-72
2021/08/12 12:50:47;;;;;;;8.15;5.57;;;31.20;99.90;;;;;;5028043;28;20029;-72
2021/08/12 12:53:14;;;;;;;8.98;5.00;;;31.30;99.90;;;;;;5032696;28;20025;-71